Time;durP1;ratioP1;P1;durP2;ratioP2;P2;SDS_P1;SDS_P2;PMS_P1;PMS_P2;Temp;Humidity;BMP_temperature;BMP_pressure;BME280_temperature;BME280_humidity;BME280_pressure;Samples;Min_cycle;Max_cycle;Signal;HPM_P1;HPM_P2
2024/03/13 00:00:22;;;;;;;80.53;41.13;;;;;;;-146.25;100.00;52497.97;2080228;28;31661;-63
2024/03/13 00:01:25;;;;;;;79.32;40.08;;;;;;;-146.25;100.00;52495.94;2079613;28;25421;-63
2024/03/13 00:02:29;;;;;;;82.95;41.88;;;;;;;-146.25;100.00;52544.59;2080170;28;36308;-63
2024/03/13 00:03:33;;;;;;;83.38;40.88;;;;;;;-146.25;100.00;52489.84;2080600;28;20042;-63
2024/03/13 00:04:43;;;;;;;78.25;39.13;;;;;;;-146.25;100.00;52493.91;2079839;28;35805;-63
2024/03/13 00:05:50;;;;;;;82.05;39.70;;;;;;;-146.25;100.00;52532.44;2080103;28;34021;-63
2024/03/13 00:06:52;;;;;;;80.32;40.08;;;;;;;-146.25;100.00;52546.63;2081065;28;20038;-62
2024/03/13 00:07:53;;;;;;;84.13;40.25;;;;;;;-146.25;100.00;52550.69;2080230;28;32416;-63
2024/03/13 00:08:55;;;;;;;77.35;40.00;;;;;;;-146.25;100.00;52534.47;2079916;28;36905;-63
2024/03/13 00:10:00;;;;;;;77.38;39.08;;;;;;;-146.25;100.00;52512.16;2079835;28;31814;-63
2024/03/13 00:11:02;;;;;;;87.57;40.63;;;;;;;-146.25;100.00;52514.19;2080060;28;35519;-62
2024/03/13 00:12:04;;;;;;;84.95;39.80;;;;;;;-146.25;100.00;52506.06;2079928;28;33306;-61
2024/03/13 00:13:06;;;;;;;83.90;40.30;;;;;;;-146.25;100.00;52518.25;2080144;28;31698;-64
2024/03/13 00:14:08;;;;;;;79.90;40.55;;;;;;;-146.25;100.00;52540.53;2079662;28;31690;-62
2024/03/13 00:15:10;;;;;;;82.43;40.20;;;;;;;-146.25;100.00;52532.44;2079880;28;34523;-62
2024/03/13 00:16:13;;;;;;;79.25;40.88;;;;;;;-146.25;100.00;52542.56;2080074;28;29668;-64
2024/03/13 00:17:21;;;;;;;80.68;40.28;;;;;;;-146.25;100.00;52554.75;2079989;28;35641;-64
2024/03/13 00:18:22;;;;;;;77.63;39.60;;;;;;;-146.25;100.00;52510.13;2079873;28;34879;-64
2024/03/13 00:19:24;;;;;;;79.53;39.50;;;;;;;-146.25;100.00;52532.44;2080109;28;33017;-64
2024/03/13 00:20:31;;;;;;;80.40;39.17;;;;;;;-146.25;100.00;52554.75;2079733;28;37402;-63
2024/03/13 00:21:35;;;;;;;77.63;40.40;;;;;;;-146.25;100.00;52510.13;2080484;28;32682;-64
2024/03/13 00:22:39;;;;;;;85.70;39.78;;;;;;;-146.25;100.00;52510.13;2079613;28;31844;-64
2024/03/13 00:23:41;;;;;;;75.97;38.25;;;;;;;-146.25;100.00;52536.50;2080137;28;33200;-62
2024/03/13 00:24:42;;;;;;;78.43;39.72;;;;;;;-146.25;100.00;52562.84;2079658;28;34218;-61
2024/03/13 00:25:45;;;;;;;76.22;40.45;;;;;;;-146.25;100.00;52536.50;2079963;28;35019;-62
2024/03/13 00:26:50;;;;;;;80.45;41.65;;;;;;;-146.25;100.00;52536.50;2079648;28;33265;-62
2024/03/13 00:27:52;;;;;;;83.10;39.78;;;;;;;-146.25;100.00;52540.53;2079968;28;35932;-62
2024/03/13 00:28:54;;;;;;;79.63;39.83;;;;;;;-146.25;100.00;52518.25;2079257;28;33440;-61
2024/03/13 00:29:56;;;;;;;78.45;38.60;;;;;;;-146.25;100.00;52516.22;2079449;28;36209;-62
2024/03/13 00:30:58;;;;;;;78.97;39.75;;;;;;;-146.25;100.00;52562.84;2079731;28;20119;-62
2024/03/13 00:32:00;;;;;;;83.43;40.25;;;;;;;-146.25;100.00;52534.47;2079787;28;35791;-62
2024/03/13 00:33:04;;;;;;;83.72;40.25;;;;;;;-146.25;100.00;52540.53;2080117;28;28341;-62
2024/03/13 00:34:07;;;;;;;83.80;40.85;;;;;;;-146.25;100.00;52483.78;2080036;28;36786;-62
2024/03/13 00:35:09;;;;;;;85.00;41.05;;;;;;;-146.25;100.00;52520.28;2079535;28;31398;-62
2024/03/13 00:36:12;;;;;;;77.00;39.05;;;;;;;-146.25;100.00;52558.78;2080237;28;33034;-62
2024/03/13 00:37:15;;;;;;;83.43;39.17;;;;;;;-146.25;100.00;52520.28;2079594;28;32738;-62
2024/03/13 00:38:17;;;;;;;83.50;39.05;;;;;;;-146.25;100.00;52516.22;2080088;28;33805;-62
2024/03/13 00:39:19;;;;;;;84.28;39.67;;;;;;;-146.25;100.00;52536.50;2079381;28;35945;-62
2024/03/13 00:40:22;;;;;;;83.28;40.95;;;;;;;-146.25;100.00;52570.97;2080228;28;32336;-62
2024/03/13 00:41:24;;;;;;;88.00;40.65;;;;;;;-146.25;100.00;52514.19;2079699;28;30060;-62
2024/03/13 00:42:26;;;;;;;81.40;38.70;;;;;;;-146.25;100.00;52510.13;2080262;28;33422;-62
2024/03/13 00:43:30;;;;;;;90.15;41.75;;;;;;;-146.25;100.00;52534.47;2080247;28;20037;-62
2024/03/13 00:44:33;;;;;;;85.32;40.67;;;;;;;-146.25;100.00;52554.75;2080540;28;20042;-64
2024/03/13 00:45:35;;;;;;;88.68;41.45;;;;;;;-146.25;100.00;52548.66;2079492;28;29976;-62
2024/03/13 00:46:40;;;;;;;80.82;40.80;;;;;;;-146.25;100.00;52558.78;2080372;28;28222;-62
2024/03/13 00:47:43;;;;;;;82.63;40.78;;;;;;;-146.25;100.00;52542.56;2079577;28;33775;-64
2024/03/13 00:48:44;;;;;;;86.88;40.35;;;;;;;-146.25;100.00;52542.56;2079113;28;32835;-61
2024/03/13 00:49:46;;;;;;;81.93;39.90;;;;;;;-146.25;100.00;52506.06;2079181;28;29467;-62
2024/03/13 00:50:48;;;;;;;86.28;41.78;;;;;;;-146.25;100.00;52528.38;2079810;28;29059;-64
2024/03/13 00:51:50;;;;;;;85.18;40.70;;;;;;;-146.25;100.00;52530.41;2079725;28;36311;-61
2024/03/13 00:52:53;;;;;;;85.47;40.42;;;;;;;-146.25;100.00;52526.34;2071956;28;33940;-63
2024/03/13 00:53:55;;;;;;;91.10;42.70;;;;;;;-146.25;100.00;52558.78;2071231;28;32841;-62
2024/03/13 00:54:57;;;;;;;95.60;44.03;;;;;;;-146.25;100.00;52548.66;2079795;28;35759;-64
2024/03/13 00:55:59;;;;;;;96.03;41.45;;;;;;;-146.25;100.00;52548.66;2079510;28;32290;-63
2024/03/13 00:57:01;;;;;;;84.68;40.25;;;;;;;-146.25;100.00;52502.03;2079974;28;33195;-62
2024/03/13 00:58:03;;;;;;;93.40;43.45;;;;;;;-146.25;100.00;52534.47;2079270;28;35079;-61
2024/03/13 00:59:06;;;;;;;87.68;40.03;;;;;;;-146.25;100.00;52518.25;2079480;28;32532;-62
2024/03/13 01:00:10;;;;;;;92.93;42.90;;;;;;;-146.25;100.00;52518.25;2079697;28;32640;-64
2024/03/13 01:01:12;;;;;;;86.57;42.42;;;;;;;-146.25;100.00;52546.63;2079882;28;39328;-63
2024/03/13 01:02:16;;;;;;;90.18;42.08;;;;;;;-146.25;100.00;52587.19;2079590;28;32762;-63
2024/03/13 01:03:22;;;;;;;88.90;42.88;;;;;;;-146.25;100.00;52522.28;2071051;28;35687;-63
2024/03/13 01:04:25;;;;;;;94.10;42.38;;;;;;;-146.25;100.00;52524.31;2072051;28;31665;-62
2024/03/13 01:05:27;;;;;;;94.32;41.95;;;;;;;-146.25;100.00;52534.47;2079747;28;33593;-63
2024/03/13 01:06:29;;;;;;;88.03;40.97;;;;;;;-146.25;100.00;52520.28;2079396;28;35957;-63
2024/03/13 01:07:31;;;;;;;91.32;42.97;;;;;;;-146.25;100.00;52544.59;2079599;28;37434;-63
2024/03/13 01:08:36;;;;;;;95.57;42.80;;;;;;;-146.25;100.00;52522.28;2080222;28;20034;-62
2024/03/13 01:09:41;;;;;;;93.20;42.33;;;;;;;-146.25;100.00;52540.53;2080400;28;20832;-62
2024/03/13 01:10:43;;;;;;;95.07;42.97;;;;;;;-146.25;100.00;52506.06;2070779;28;34912;-62
2024/03/13 01:11:46;;;;;;;90.25;42.28;;;;;;;-146.25;100.00;52491.88;2071783;28;20042;-62
2024/03/13 01:12:49;;;;;;;96.22;42.72;;;;;;;-146.25;100.00;52518.25;2070351;28;34232;-62
2024/03/13 01:13:51;;;;;;;89.30;41.78;;;;;;;-146.25;100.00;52512.16;2071429;28;20120;-62
2024/03/13 01:14:53;;;;;;;90.15;39.88;;;;;;;-146.25;100.00;52518.25;2079438;28;35479;-62
2024/03/13 01:15:55;;;;;;;96.85;42.92;;;;;;;-146.25;100.00;52550.69;2079668;28;32910;-62
2024/03/13 01:16:58;;;;;;;92.68;42.60;;;;;;;-146.25;100.00;52540.53;2079600;28;32503;-62
2024/03/13 01:18:00;;;;;;;102.30;44.03;;;;;;;-146.25;100.00;52526.34;2079422;28;36095;-62
2024/03/13 01:19:02;;;;;;;96.82;41.63;;;;;;;-146.25;100.00;52532.44;2080293;28;20050;-62
2024/03/13 01:20:07;;;;;;;99.00;43.13;;;;;;;-146.25;100.00;52540.53;2079404;28;34670;-64
2024/03/13 01:21:11;;;;;;;96.53;43.38;;;;;;;-146.25;100.00;52520.28;2079528;28;22302;-63
2024/03/13 01:22:15;;;;;;;97.55;43.75;;;;;;;-146.25;100.00;52528.38;2079561;28;34265;-63
2024/03/13 01:23:19;;;;;;;96.35;43.38;;;;;;;-146.25;100.00;52548.66;2079480;28;34795;-62
2024/03/13 01:24:21;;;;;;;99.65;43.55;;;;;;;-146.25;100.00;52502.03;2080346;28;20042;-63
2024/03/13 01:25:23;;;;;;;90.97;42.30;;;;;;;-146.25;100.00;52510.13;2079180;28;37951;-64
2024/03/13 01:26:25;;;;;;;89.57;42.63;;;;;;;-146.25;100.00;52558.78;2079068;28;28680;-63
2024/03/13 01:27:28;;;;;;;96.95;42.95;;;;;;;-146.25;100.00;52562.84;2078781;28;35564;-60
2024/03/13 01:28:33;;;;;;;98.63;44.78;;;;;;;-146.25;100.00;52524.31;2079343;28;31874;-62
2024/03/13 01:29:38;;;;;;;104.47;44.42;;;;;;;-146.25;100.00;52562.84;2078906;28;32783;-62
2024/03/13 01:30:39;;;;;;;97.47;42.60;;;;;;;-146.25;100.00;52510.13;2079636;28;35187;-62
2024/03/13 01:31:43;;;;;;;90.80;41.25;;;;;;;-146.25;100.00;52562.84;2079135;28;32749;-61
2024/03/13 01:32:47;;;;;;;99.32;42.45;;;;;;;-146.25;100.00;52558.78;2079039;28;36900;-63
2024/03/13 01:33:49;;;;;;;103.57;43.65;;;;;;;-146.25;100.00;52550.69;2079753;28;20038;-62
2024/03/13 01:34:53;;;;;;;107.93;44.45;;;;;;;-146.25;100.00;52532.44;2080315;28;20034;-62
2024/03/13 01:35:55;;;;;;;104.07;44.58;;;;;;;-146.25;100.00;52508.09;2079346;28;36706;-62
2024/03/13 01:38:17;;;;;;;;;;;;;;;-146.25;100.00;52512.16;2080792;28;20049;-63
2024/03/13 01:39:21;;;;;;;97.60;39.10;;;;;;;-146.25;100.00;52597.31;2079326;28;36011;-63
2024/03/13 01:55:40;;;;;;;104.50;41.17;;;;;;;-146.25;100.00;52534.47;2070313;28;34901;-63
2024/03/13 01:56:58;;;;;;;100.82;42.00;;;;;;;-146.25;100.00;52556.75;2063044;28;20046;-63
2024/03/13 01:59:20;;;;;;;106.30;43.05;;;;;;;-146.25;100.00;52544.59;2071008;28;20043;-63
2024/03/13 02:03:10;;;;;;;90.35;42.28;;;;;;;-146.25;100.00;52508.09;2079280;28;36063;-63
2024/03/13 02:04:12;;;;;;;94.18;40.28;;;;;;;-146.25;100.00;52556.75;2080048;28;35163;-63
2024/03/13 02:05:17;;;;;;;101.07;44.53;;;;;;;-146.25;100.00;52546.63;2078982;28;38692;-63
2024/03/13 02:06:18;;;;;;;106.25;43.25;;;;;;;-146.25;100.00;52536.50;2070500;28;36440;-63
2024/03/13 02:07:23;;;;;;;103.00;44.17;;;;;;;-146.25;100.00;52542.56;2070830;28;31686;-63
2024/03/13 02:08:25;;;;;;;102.03;42.47;;;;;;;-146.25;100.00;52548.66;2070658;28;37334;-63
2024/03/13 02:09:29;;;;;;;108.03;43.30;;;;;;;-146.25;100.00;52546.63;2063015;28;38209;-63
2024/03/13 02:10:32;;;;;;;109.28;43.97;;;;;;;-146.25;100.00;52546.63;2070763;28;35588;-63
2024/03/13 02:11:35;;;;;;;103.07;43.10;;;;;;;-146.25;100.00;52562.84;2079444;28;33199;-63
2024/03/13 02:12:37;;;;;;;108.63;44.80;;;;;;;-146.25;100.00;52548.66;2079840;28;29919;-63
2024/03/13 02:13:39;;;;;;;107.30;44.63;;;;;;;-146.25;100.00;52506.06;2079234;28;37261;-63
2024/03/13 02:14:41;;;;;;;106.43;43.33;;;;;;;-146.25;100.00;52493.91;2079201;28;31276;-63
2024/03/13 02:15:46;;;;;;;100.47;41.90;;;;;;;-146.25;100.00;52538.53;2079398;28;21087;-63
2024/03/13 02:16:52;;;;;;;108.25;44.33;;;;;;;-146.25;100.00;52524.31;2079736;28;26085;-63
2024/03/13 02:17:54;;;;;;;108.55;44.25;;;;;;;-146.25;100.00;52536.50;2079220;28;37844;-63
2024/03/13 02:18:59;;;;;;;107.78;44.97;;;;;;;-146.25;100.00;52570.97;2079827;28;20034;-63
2024/03/13 02:20:04;;;;;;;107.85;44.17;;;;;;;-146.25;100.00;52546.63;2079420;28;34925;-63
2024/03/13 02:21:07;;;;;;;114.60;45.38;;;;;;;-146.25;100.00;52514.19;2070140;28;35898;-63
2024/03/13 02:22:13;;;;;;;111.07;44.42;;;;;;;-146.25;100.00;52512.16;2071202;28;34076;-63
2024/03/13 02:23:22;;;;;;;106.95;44.97;;;;;;;-146.25;100.00;52534.47;2077112;28;38305;-63
2024/03/13 02:24:24;;;;;;;104.93;44.03;;;;;;;-146.25;100.00;52510.13;2080296;28;35752;-63
2024/03/13 02:25:26;;;;;;;99.60;42.20;;;;;;;-146.25;100.00;52560.81;2087132;28;34820;-63
2024/03/13 02:26:30;;;;;;;107.65;44.22;;;;;;;-146.25;100.00;52528.38;2089071;28;37088;-63
2024/03/13 02:27:32;;;;;;;113.75;44.65;;;;;;;-146.25;100.00;52570.97;2088523;28;32205;-63
2024/03/13 02:28:38;;;;;;;112.13;44.70;;;;;;;-146.25;100.00;52530.41;2088518;28;33106;-63
2024/03/13 02:29:46;;;;;;;112.03;44.17;;;;;;;-146.25;100.00;52524.31;2088266;28;35040;-63
2024/03/13 02:30:50;;;;;;;101.97;41.65;;;;;;;-146.25;100.00;52544.59;2089985;28;21053;-63
2024/03/13 02:31:54;;;;;;;107.47;44.90;;;;;;;-146.25;100.00;52542.56;2089406;28;20038;-63
2024/03/13 02:32:56;;;;;;;103.07;41.95;;;;;;;-146.25;100.00;52489.84;2088602;28;35422;-63
2024/03/13 02:33:58;;;;;;;100.13;42.78;;;;;;;-146.25;100.00;52520.28;2088776;28;37596;-61
2024/03/13 02:35:00;;;;;;;105.10;42.33;;;;;;;-146.25;100.00;52528.38;2089045;28;35853;-63
2024/03/13 02:36:03;;;;;;;108.10;43.55;;;;;;;-146.25;100.00;52554.75;2088709;28;34868;-63
2024/03/13 02:37:05;;;;;;;110.38;43.78;;;;;;;-146.25;100.00;52524.31;2080096;28;32810;-63
2024/03/13 02:38:09;;;;;;;103.57;43.28;;;;;;;-146.25;100.00;52550.69;2079978;28;35436;-63
2024/03/13 02:39:17;;;;;;;108.95;43.58;;;;;;;-146.25;100.00;52554.75;2088720;28;37080;-63
2024/03/13 02:40:19;;;;;;;107.00;43.80;;;;;;;-146.25;100.00;52512.16;2088663;28;37539;-63
2024/03/13 02:41:21;;;;;;;107.28;43.95;;;;;;;-146.25;100.00;52558.78;2089070;28;33402;-62
2024/03/13 02:42:25;;;;;;;112.32;43.83;;;;;;;-146.25;100.00;52554.75;2088597;28;36102;-63
2024/03/13 02:43:26;;;;;;;114.40;44.42;;;;;;;-146.25;100.00;52522.28;2084239;28;20050;-62
2024/03/13 02:44:28;;;;;;;113.30;43.80;;;;;;;-146.25;100.00;52554.75;2080015;28;36246;-63
2024/03/13 02:45:32;;;;;;;104.03;42.40;;;;;;;-146.25;100.00;52542.56;2072553;28;20077;-62
2024/03/13 02:46:34;;;;;;;105.75;42.05;;;;;;;-146.25;100.00;52520.28;2072085;28;33810;-63
2024/03/13 02:47:38;;;;;;;106.85;43.20;;;;;;;-146.25;100.00;52556.75;2081069;28;31705;-64
2024/03/13 02:48:40;;;;;;;99.88;41.03;;;;;;;-146.25;100.00;52526.34;2080373;28;34508;-63
2024/03/13 02:49:45;;;;;;;99.65;42.10;;;;;;;-146.25;100.00;52520.28;2081132;28;36101;-63
2024/03/13 02:50:47;;;;;;;105.00;42.42;;;;;;;-146.25;100.00;52566.91;2080198;28;31965;-64
2024/03/13 02:51:48;;;;;;;110.35;42.65;;;;;;;-146.25;100.00;52562.84;2080664;28;33836;-62
2024/03/13 02:52:50;;;;;;;109.13;44.60;;;;;;;-146.25;100.00;52524.31;2080029;28;34935;-61
2024/03/13 02:53:54;;;;;;;106.05;43.63;;;;;;;-146.25;100.00;52546.63;2080864;28;34999;-64
2024/03/13 02:54:56;;;;;;;108.88;43.95;;;;;;;-146.25;100.00;52524.31;2079848;28;33503;-63
2024/03/13 02:55:58;;;;;;;107.60;42.92;;;;;;;-146.25;100.00;52540.53;2081045;28;33664;-62
2024/03/13 02:57:00;;;;;;;112.20;45.20;;;;;;;-146.25;100.00;52566.91;2080654;28;27653;-62
2024/03/13 02:58:02;;;;;;;112.53;43.63;;;;;;;-146.25;100.00;52520.28;2080766;28;37218;-63
2024/03/13 02:59:04;;;;;;;110.47;42.50;;;;;;;-146.25;100.00;52550.69;2071388;28;36999;-62
2024/03/13 03:00:07;;;;;;;119.53;45.05;;;;;;;-146.25;100.00;52554.75;2071571;28;35550;-61
2024/03/13 03:01:09;;;;;;;123.45;46.35;;;;;;;-146.25;100.00;52532.44;2079254;28;34230;-62
2024/03/13 03:02:10;;;;;;;115.82;45.65;;;;;;;-146.25;100.00;52550.69;2080148;28;34796;-64
2024/03/13 03:03:13;;;;;;;109.85;43.80;;;;;;;-146.25;100.00;52562.84;2080297;28;34557;-63
2024/03/13 03:04:18;;;;;;;114.65;43.97;;;;;;;-146.25;100.00;52528.38;2080536;28;35489;-62
2024/03/13 03:05:21;;;;;;;111.63;42.58;;;;;;;-146.25;100.00;52530.41;2080265;28;36416;-62
2024/03/13 03:06:23;;;;;;;117.38;45.88;;;;;;;-146.25;100.00;52532.44;2080044;28;33111;-62
2024/03/13 03:07:25;;;;;;;113.32;44.10;;;;;;;-146.25;100.00;52540.53;2079362;28;35123;-62
2024/03/13 03:08:28;;;;;;;122.18;44.70;;;;;;;-146.25;100.00;52542.56;2080293;28;33948;-63
2024/03/13 03:09:32;;;;;;;113.82;42.90;;;;;;;-146.25;100.00;52556.75;2079708;28;35106;-63
2024/03/13 03:10:35;;;;;;;117.90;44.65;;;;;;;-146.25;100.00;52542.56;2079743;28;34203;-62
2024/03/13 03:11:37;;;;;;;112.10;44.25;;;;;;;-146.25;100.00;52556.75;2079700;28;33394;-63
2024/03/13 03:12:42;;;;;;;114.63;42.78;;;;;;;-146.25;100.00;52542.56;2080769;28;36476;-62
2024/03/13 03:13:44;;;;;;;115.13;44.33;;;;;;;-146.25;100.00;52508.09;2079868;28;34982;-62
2024/03/13 03:14:46;;;;;;;117.57;44.25;;;;;;;-146.25;100.00;52538.53;2071250;28;34365;-62
2024/03/13 03:15:48;;;;;;;115.90;44.42;;;;;;;-146.25;100.00;52510.13;2071633;28;35239;-64
2024/03/13 03:16:50;;;;;;;118.47;45.22;;;;;;;-146.25;100.00;52544.59;2071831;28;35240;-64
2024/03/13 03:17:53;;;;;;;119.60;44.85;;;;;;;-146.25;100.00;52595.28;2080687;28;20038;-62
2024/03/13 03:18:59;;;;;;;118.45;44.85;;;;;;;-146.25;100.00;52554.75;2080743;28;35308;-62
2024/03/13 03:20:01;;;;;;;115.10;43.97;;;;;;;-146.25;100.00;52564.88;2080001;28;32462;-62
2024/03/13 03:21:07;;;;;;;106.80;44.05;;;;;;;-146.25;100.00;52552.72;2080669;28;35428;-62
2024/03/13 03:22:09;;;;;;;113.65;43.50;;;;;;;-146.25;100.00;52534.47;2080444;28;36487;-62
2024/03/13 03:23:14;;;;;;;112.85;43.47;;;;;;;-146.25;100.00;52518.25;2081435;28;20046;-63
2024/03/13 03:24:16;;;;;;;121.85;46.25;;;;;;;-146.25;100.00;52548.66;2080136;28;32688;-63
2024/03/13 03:25:24;;;;;;;117.47;44.55;;;;;;;-146.25;100.00;52518.25;2080585;28;34751;-63
2024/03/13 03:26:28;;;;;;;115.35;44.60;;;;;;;-146.25;100.00;52502.03;2071619;28;31145;-63
2024/03/13 03:27:30;;;;;;;110.10;43.35;;;;;;;-146.25;100.00;52532.44;2072621;28;38748;-63
2024/03/13 03:28:31;;;;;;;115.53;44.85;;;;;;;-146.25;100.00;52546.63;2079848;28;36904;-63
2024/03/13 03:29:33;;;;;;;100.53;41.00;;;;;;;-146.25;100.00;52573.00;2080417;28;32456;-63
2024/03/13 03:30:41;;;;;;;115.60;43.83;;;;;;;-146.25;100.00;52538.53;2079937;28;32799;-63
2024/03/13 03:31:43;;;;;;;109.47;43.38;;;;;;;-146.25;100.00;52575.00;2080477;28;36999;-64
2024/03/13 03:32:45;;;;;;;106.50;42.65;;;;;;;-146.25;100.00;52577.03;2080811;28;32525;-63
2024/03/13 03:33:47;;;;;;;113.32;43.25;;;;;;;-146.25;100.00;52573.00;2079813;28;36495;-63
2024/03/13 03:34:49;;;;;;;112.15;43.38;;;;;;;-146.25;100.00;52554.75;2080639;28;33881;-63
2024/03/13 03:35:50;;;;;;;115.03;43.60;;;;;;;-146.25;100.00;52530.41;2080066;28;34142;-63
2024/03/13 03:36:53;;;;;;;113.53;44.78;;;;;;;-146.25;100.00;52504.03;2071340;28;33979;-63
2024/03/13 03:37:58;;;;;;;116.68;43.95;;;;;;;-146.25;100.00;52566.91;2071965;28;35155;-63
2024/03/13 03:39:05;;;;;;;112.70;43.40;;;;;;;-146.25;100.00;52554.75;2080233;28;33365;-63
2024/03/13 03:40:13;;;;;;;103.43;39.35;;;;;;;-146.25;100.00;52548.66;2081146;28;20038;-63
2024/03/13 03:41:15;;;;;;;116.93;43.05;;;;;;;-146.25;100.00;52554.75;2080611;28;34358;-63
2024/03/13 03:42:16;;;;;;;106.75;42.72;;;;;;;-146.25;100.00;52550.69;2080089;28;36900;-63
2024/03/13 03:43:18;;;;;;;99.65;42.28;;;;;;;-146.25;100.00;52534.47;2080266;28;36218;-63
2024/03/13 03:44:20;;;;;;;116.05;44.67;;;;;;;-146.25;100.00;52583.13;2080169;28;34911;-63
2024/03/13 03:45:22;;;;;;;117.57;44.13;;;;;;;-146.25;100.00;52528.38;2079976;28;20050;-63
2024/03/13 03:46:24;;;;;;;102.78;41.92;;;;;;;-146.25;100.00;52542.56;2080213;28;31156;-63
2024/03/13 03:47:28;;;;;;;111.35;44.25;;;;;;;-146.25;100.00;52536.50;2080277;28;33555;-63
2024/03/13 03:48:30;;;;;;;108.13;41.25;;;;;;;-146.25;100.00;52538.53;2080157;28;32541;-63
2024/03/13 03:49:39;;;;;;;103.25;40.45;;;;;;;-146.25;100.00;52532.44;2080525;28;20045;-63
2024/03/13 03:50:41;;;;;;;106.82;42.58;;;;;;;-146.25;100.00;52550.69;2079791;28;35414;-63
2024/03/13 03:51:44;;;;;;;115.43;43.10;;;;;;;-146.25;100.00;52534.47;2080974;28;20038;-62
2024/03/13 03:52:47;;;;;;;118.78;43.78;;;;;;;-146.25;100.00;52530.41;2080570;28;20039;-63
2024/03/13 03:53:49;;;;;;;106.30;42.35;;;;;;;-146.25;100.00;52528.38;2071052;28;35242;-63
2024/03/13 03:54:50;;;;;;;107.55;42.22;;;;;;;-146.25;100.00;52522.28;2071001;28;34521;-64
2024/03/13 03:55:53;;;;;;;109.32;43.75;;;;;;;-146.25;100.00;52552.72;2080332;28;33410;-63
2024/03/13 03:56:55;;;;;;;102.57;42.38;;;;;;;-146.25;100.00;52530.41;2080546;28;37820;-63
2024/03/13 03:57:56;;;;;;;108.60;43.40;;;;;;;-146.25;100.00;52556.75;2080392;28;32842;-63
2024/03/13 03:58:58;;;;;;;108.80;42.90;;;;;;;-146.25;100.00;52526.34;2080255;28;33943;-63
2024/03/13 04:00:00;;;;;;;104.00;41.63;;;;;;;-146.25;100.00;52518.25;2079779;28;35685;-63
2024/03/13 04:01:05;;;;;;;107.13;43.78;;;;;;;-146.25;100.00;52516.22;2079860;28;20042;-63
2024/03/13 04:02:07;;;;;;;108.88;41.90;;;;;;;-146.25;100.00;52562.84;2080330;28;29946;-63
2024/03/13 04:03:09;;;;;;;108.55;42.40;;;;;;;-146.25;100.00;52550.69;2080245;28;32970;-63
2024/03/13 04:04:13;;;;;;;109.70;42.67;;;;;;;-146.25;100.00;52530.41;2080067;28;35629;-63
2024/03/13 04:05:17;;;;;;;103.10;41.75;;;;;;;-146.25;100.00;52524.31;2079874;28;33914;-63
2024/03/13 04:06:20;;;;;;;106.00;42.17;;;;;;;-146.25;100.00;52487.81;2079261;28;35149;-64
2024/03/13 04:07:22;;;;;;;102.43;42.65;;;;;;;-146.25;100.00;52528.38;2079174;28;30089;-63
2024/03/13 04:08:23;;;;;;;103.32;42.28;;;;;;;-146.25;100.00;52562.84;2071076;28;35098;-62
2024/03/13 04:09:28;;;;;;;95.40;40.83;;;;;;;-146.25;100.00;52489.84;2071040;28;36642;-63
2024/03/13 04:10:32;;;;;;;107.22;42.25;;;;;;;-146.25;100.00;52564.88;2080742;28;20038;-63
2024/03/13 04:11:35;;;;;;;106.65;40.70;;;;;;;-146.25;100.00;52520.28;2079598;28;38082;-63
2024/03/13 04:12:37;;;;;;;101.88;41.00;;;;;;;-146.25;100.00;52542.56;2080040;28;34295;-63
2024/03/13 04:13:39;;;;;;;103.57;42.63;;;;;;;-146.25;100.00;52536.50;2079827;28;33954;-63
2024/03/13 04:14:44;;;;;;;102.03;40.63;;;;;;;-146.25;100.00;52544.59;2079611;28;36510;-63
2024/03/13 04:15:46;;;;;;;101.47;40.85;;;;;;;-146.25;100.00;52522.28;2079749;28;33940;-63
2024/03/13 04:16:48;;;;;;;106.30;41.67;;;;;;;-146.25;100.00;52554.75;2071632;28;26233;-63
2024/03/13 04:17:50;;;;;;;103.65;42.25;;;;;;;-146.25;100.00;52506.06;2071304;28;34071;-63
2024/03/13 04:18:54;;;;;;;98.43;40.25;;;;;;;-146.25;100.00;52575.00;2080440;28;34181;-63
2024/03/13 04:19:55;;;;;;;98.22;40.63;;;;;;;-146.25;100.00;52564.88;2079662;28;36293;-63
2024/03/13 04:20:58;;;;;;;110.80;42.22;;;;;;;-146.25;100.00;52520.28;2080077;28;27709;-63
2024/03/13 04:22:00;;;;;;;108.28;42.10;;;;;;;-146.25;100.00;52526.34;2071481;28;20069;-63
2024/03/13 04:23:02;;;;;;;105.80;42.55;;;;;;;-146.25;100.00;52548.66;2070908;28;34390;-63
2024/03/13 04:24:07;;;;;;;109.13;42.17;;;;;;;-146.25;100.00;52566.91;2079899;28;33272;-63
2024/03/13 04:25:13;;;;;;;106.15;43.67;;;;;;;-146.25;100.00;52540.53;2080269;28;23842;-63
2024/03/13 04:26:15;;;;;;;97.75;39.75;;;;;;;-146.25;100.00;52548.66;2079796;28;31909;-63
2024/03/13 04:27:19;;;;;;;104.82;40.50;;;;;;;-146.25;100.00;52508.09;2079888;28;37080;-63
2024/03/13 04:28:22;;;;;;;93.68;38.65;;;;;;;-146.25;100.00;52548.66;2079782;28;34240;-63
2024/03/13 04:29:24;;;;;;;95.07;41.08;;;;;;;-146.25;100.00;52566.91;2071180;28;36487;-63
2024/03/13 04:30:29;;;;;;;94.00;39.88;;;;;;;-146.25;100.00;52510.13;2071484;28;36821;-63
2024/03/13 04:31:33;;;;;;;103.25;40.88;;;;;;;-146.25;100.00;52542.56;2080000;28;34324;-63
2024/03/13 04:32:35;;;;;;;100.53;39.88;;;;;;;-146.25;100.00;52554.75;2079555;28;38594;-63
2024/03/13 04:33:37;;;;;;;93.85;39.00;;;;;;;-146.25;100.00;52556.75;2071814;28;20109;-63
2024/03/13 04:34:38;;;;;;;95.90;39.05;;;;;;;-146.25;100.00;52550.69;2071246;28;34644;-63
2024/03/13 04:35:40;;;;;;;94.47;39.63;;;;;;;-146.25;100.00;52558.78;2079946;28;35009;-63
2024/03/13 04:36:43;;;;;;;94.82;40.97;;;;;;;-146.25;100.00;52562.84;2079788;28;31072;-63
2024/03/13 04:37:49;;;;;;;98.70;40.28;;;;;;;-146.25;100.00;52575.00;2080834;28;20049;-63
2024/03/13 04:38:51;;;;;;;92.65;38.85;;;;;;;-146.25;100.00;52528.38;2079608;28;31595;-63
2024/03/13 04:39:58;;;;;;;88.85;37.42;;;;;;;-146.25;100.00;52534.47;2080138;28;34054;-63
2024/03/13 04:41:00;;;;;;;92.00;39.30;;;;;;;-146.25;100.00;52518.25;2079610;28;35767;-63
2024/03/13 04:42:04;;;;;;;89.97;39.58;;;;;;;-146.25;100.00;52532.44;2080574;28;30566;-63
2024/03/13 04:43:07;;;;;;;93.60;38.58;;;;;;;-146.25;100.00;52548.66;2079570;28;36927;-63
2024/03/13 04:44:11;;;;;;;93.93;38.83;;;;;;;-146.25;100.00;52526.34;2080048;28;34864;-63
2024/03/13 04:45:13;;;;;;;91.28;39.75;;;;;;;-146.25;100.00;52554.75;2079274;28;35150;-63
2024/03/13 04:46:16;;;;;;;85.18;37.42;;;;;;;-146.25;100.00;52566.91;2079973;28;33425;-63
2024/03/13 04:47:18;;;;;;;96.10;39.58;;;;;;;-146.25;100.00;52510.13;2079768;28;33149;-63
2024/03/13 04:48:20;;;;;;;92.63;39.00;;;;;;;-146.25;100.00;52536.50;2078911;28;36323;-63
2024/03/13 04:49:22;;;;;;;98.10;39.45;;;;;;;-146.25;100.00;52504.03;2079595;28;38059;-63
2024/03/13 04:50:24;;;;;;;92.25;39.08;;;;;;;-146.25;100.00;52544.59;2080090;28;32599;-63
2024/03/13 04:51:28;;;;;;;88.05;39.13;;;;;;;-146.25;100.00;52546.63;2070298;28;40427;-63
2024/03/13 04:52:29;;;;;;;82.97;37.70;;;;;;;-146.25;100.00;52540.53;2072036;28;33660;-63
2024/03/13 04:53:31;;;;;;;88.93;39.15;;;;;;;-146.25;100.00;52534.47;2079495;28;34417;-63
2024/03/13 04:54:33;;;;;;;86.10;37.83;;;;;;;-146.25;100.00;52534.47;2079616;28;34010;-63
2024/03/13 04:55:35;;;;;;;83.05;37.13;;;;;;;-146.25;100.00;52518.25;2079551;28;31007;-63
2024/03/13 04:56:39;;;;;;;90.03;39.15;;;;;;;-146.25;100.00;52562.84;2079700;28;33704;-63
2024/03/13 04:57:41;;;;;;;82.53;37.40;;;;;;;-146.25;100.00;52540.53;2079297;28;36406;-63
2024/03/13 04:58:44;;;;;;;80.70;36.67;;;;;;;-146.25;100.00;52530.41;2080543;28;20038;-63